Search for airport 
image banner adimage banner adimage banner ad
image banner ad

5PN8 - Lincoln Farms

Located in Calvin, United States

ICAO - 5PN8, IATA -

Data provided by Airmate  

General information

Coordinates: N40°19'44" W78°2'42"
Elevation is 1200 feet MSL.
 
View others Airports in Pennsylvania

Operational data

Special qualification required
Current time UTC:
Current local time:
Weather at : KAOO - Altoona-Blair County ( 24 km )
METAR: KAOO 150653Z AUTO 00000KT 10SM CLR 16/13 A2986 RMK AO2 SLP103 T01560128
TAF: KAOO 150537Z 1506/1606 32004KT P6SM SCT001 TEMPO 1508/1512 3/4SM BR BKN015 FM151400 32010G20KT P6SM BKN040 FM160100 31007KT P6SM SCT035
View NOTAMs / SUP AIP / TFR affecting this airport [VIEW]
Communications frequencies: [VIEW]

Runways:

RWY identifierQFULength (ft)Width (ft)SurfaceLDA (ft)
021420100GRASS
201420100GRASS

Airport contact information

Address: Calvin United States

Satellite view of 5PN8